Time;durP1;ratioP1;P1;durP2;ratioP2;P2;SDS_P1;SDS_P2;PMS_P1;PMS_P2;Temp;Humidity;BMP_temperature;BMP_pressure;BME280_temperature;BME280_humidity;BME280_pressure;Samples;Min_cycle;Max_cycle;Signal;HPM_P1;HPM_P2
2022/02/09 00:00:20;;;;;;;7.07;4.67;;;9.20;99.90;;;;;;10425251;28;20225;-80
2022/02/09 00:05:29;;;;;;;8.40;4.70;;;9.20;99.90;;;;;;10402944;28;20197;-80
2022/02/09 00:10:34;;;;;;;6.80;5.07;;;9.20;99.90;;;;;;10427478;28;20649;-80
2022/02/09 00:15:42;;;;;;;7.63;4.90;;;9.20;99.90;;;;;;10426519;28;20305;-80
2022/02/09 00:21:16;;;;;;;12.20;4.70;;;9.20;99.90;;;;;;10427515;28;20644;-80
2022/02/09 00:37:29;;;;;;;5.00;4.50;;;9.20;99.90;;;;;;10357634;28;20212;-80
2022/02/09 00:43:00;;;;;;;5.43;4.40;;;9.20;99.90;;;;;;10423565;28;20209;-79
2022/02/09 00:59:09;;;;;;;4.93;3.70;;;9.20;99.90;;;;;;10413075;28;20231;-80
2022/02/09 01:57:47;;;;;;;4.53;4.13;;;9.10;99.90;;;;;;10407788;28;20240;-82
2022/02/09 02:02:53;;;;;;;3.90;3.60;;;9.10;99.90;;;;;;10428973;28;20205;-81
2022/02/09 02:07:59;;;;;;;4.83;4.23;;;9.10;99.90;;;;;;10420834;28;20581;-83
2022/02/09 02:13:24;;;;;;;6.93;4.10;;;9.00;99.90;;;;;;10428555;28;20224;-83
2022/02/09 02:18:27;;;;;;;5.10;4.00;;;9.10;99.90;;;;;;10436403;28;20261;-81
2022/02/09 02:23:57;;;;;;;3.73;3.43;;;9.10;99.90;;;;;;10422040;28;20226;-83
2022/02/09 02:29:15;;;;;;;5.67;3.97;;;9.10;99.90;;;;;;10422190;28;20213;-80
2022/02/09 03:17:10;;;;;;;3.63;3.33;;;9.10;99.90;;;;;;10407679;28;20704;-82
2022/02/09 03:22:26;;;;;;;4.40;3.30;;;9.10;99.90;;;;;;10401046;28;20202;-82
2022/02/09 03:27:46;;;;;;;3.77;3.47;;;9.10;99.90;;;;;;10417580;28;20225;-81
2022/02/09 03:49:09;;;;;;;3.10;2.70;;;9.20;99.90;;;;;;10416168;28;20226;-81
2022/02/09 03:54:20;;;;;;;3.17;2.97;;;9.20;99.90;;;;;;10432525;28;20214;-81
2022/02/09 03:59:23;;;;;;;3.33;3.03;;;9.20;99.90;;;;;;10433235;28;20238;-80
2022/02/09 04:04:25;;;;;;;3.37;3.07;;;9.20;99.90;;;;;;10437196;28;20610;-81
2022/02/09 04:09:30;;;;;;;2.80;2.60;;;9.20;99.90;;;;;;10433986;28;20237;-80
2022/02/09 04:14:44;;;;;;;2.60;2.50;;;9.20;99.90;;;;;;10430137;28;20222;-80
2022/02/09 04:20:06;;;;;;;3.37;2.87;;;9.20;99.90;;;;;;10426883;28;20245;-80
2022/02/09 04:36:13;;;;;;;4.23;2.83;;;9.20;99.90;;;;;;10414493;28;20218;-83
2022/02/09 04:41:31;;;;;;;2.87;2.67;;;9.30;99.90;;;;;;10411518;28;20218;-83
2022/02/09 04:47:01;;;;;;;2.70;2.50;;;9.30;99.90;;;;;;10407632;28;20193;-81
2022/02/09 04:52:15;;;;;;;2.77;2.47;;;9.30;99.90;;;;;;10424935;28;20296;-81
2022/02/09 04:57:29;;;;;;;3.27;2.70;;;9.20;99.90;;;;;;10421293;28;20256;-80
2022/02/09 05:02:53;;;;;;;3.30;3.00;;;9.20;99.90;;;;;;10419355;28;20234;-80
2022/02/09 05:19:12;;;;;;;3.20;2.90;;;9.10;99.90;;;;;;10417054;28;20218;-82
2022/02/09 05:24:16;;;;;;;2.60;2.40;;;9.10;99.90;;;;;;10408966;28;20200;-80
2022/02/09 05:29:18;;;;;;;3.80;3.17;;;9.10;99.90;;;;;;10399508;28;20312;-81
2022/02/09 05:34:22;;;;;;;3.20;3.00;;;9.10;99.90;;;;;;10421188;28;20630;-81
2022/02/09 05:39:24;;;;;;;3.13;2.80;;;9.10;99.90;;;;;;10419555;28;20228;-81
2022/02/09 05:44:26;;;;;;;2.93;2.73;;;9.10;99.90;;;;;;10428217;28;20202;-80
2022/02/09 05:49:37;;;;;;;3.17;2.97;;;9.00;99.90;;;;;;10405525;28;20612;-81
2022/02/09 05:55:03;;;;;;;4.80;3.57;;;9.00;99.90;;;;;;10423984;28;20717;-79
2022/02/09 06:00:06;;;;;;;5.03;3.40;;;9.00;99.90;;;;;;10422856;28;20229;-80
2022/02/09 06:05:20;;;;;;;4.10;3.27;;;9.00;99.90;;;;;;10421905;28;20198;-79
2022/02/09 06:10:27;;;;;;;3.20;3.00;;;9.00;99.90;;;;;;10423260;28;20233;-79
2022/02/09 06:15:57;;;;;;;3.80;3.33;;;9.00;99.90;;;;;;10421740;28;20383;-80
2022/02/09 06:21:01;;;;;;;6.23;3.50;;;9.00;99.90;;;;;;10425110;28;20237;-80
2022/02/09 06:26:05;;;;;;;7.20;4.30;;;9.10;99.90;;;;;;10404835;28;20287;-78
2022/02/09 06:31:07;;;;;;;3.87;3.50;;;9.10;99.90;;;;;;10433062;28;20222;-80
2022/02/09 06:36:13;;;;;;;4.20;3.80;;;9.10;99.90;;;;;;10417110;28;20320;-77
2022/02/09 06:41:15;;;;;;;5.70;4.10;;;9.20;99.90;;;;;;10417353;28;20222;-78
2022/02/09 06:46:17;;;;;;;3.83;3.53;;;9.20;99.90;;;;;;10418134;28;20198;-80
2022/02/09 06:51:26;;;;;;;4.13;3.30;;;9.30;99.90;;;;;;10418130;28;20222;-77
2022/02/09 06:56:42;;;;;;;4.57;4.00;;;9.30;99.90;;;;;;10418630;28;20229;-78
2022/02/09 07:01:44;;;;;;;4.97;3.67;;;9.30;99.90;;;;;;10421975;28;20221;-79
2022/02/09 07:06:48;;;;;;;3.93;3.57;;;9.30;99.90;;;;;;10428911;28;20194;-79
2022/02/09 07:11:50;;;;;;;6.13;4.37;;;9.20;99.90;;;;;;10429197;28;20241;-77
2022/02/09 07:16:53;;;;;;;4.60;3.67;;;9.10;99.90;;;;;;10429132;28;20222;-77
2022/02/09 07:21:57;;;;;;;4.83;4.30;;;9.00;99.90;;;;;;10426755;28;20221;-78
2022/02/09 07:27:24;;;;;;;5.70;3.20;;;8.90;99.90;;;;;;10426973;28;20210;-81
2022/02/09 07:32:26;;;;;;;5.37;4.00;;;8.70;99.90;;;;;;10428664;28;20205;-80
2022/02/09 07:37:29;;;;;;;7.90;3.90;;;8.50;99.90;;;;;;10410812;28;20685;-81
2022/02/09 07:42:33;;;;;;;5.03;3.80;;;8.40;99.90;;;;;;10427867;28;20567;-79
2022/02/09 07:47:47;;;;;;;7.00;4.10;;;8.30;99.90;;;;;;10426800;28;20229;-81
2022/02/09 07:52:55;;;;;;;5.80;4.60;;;8.30;99.90;;;;;;10427039;28;20222;-78
2022/02/09 07:57:58;;;;;;;6.60;3.97;;;8.30;99.90;;;;;;10425733;28;20740;-80
2022/02/09 08:03:00;;;;;;;10.63;4.47;;;8.30;99.90;;;;;;10427459;28;20642;-79
2022/02/09 08:08:04;;;;;;;7.97;4.80;;;8.30;99.90;;;;;;10425343;28;20229;-78
2022/02/09 08:24:09;;;;;;;7.93;4.97;;;8.40;99.90;;;;;;10416631;28;20604;-77
2022/02/09 08:29:20;;;;;;;6.83;4.50;;;8.40;99.90;;;;;;10410847;28;20217;-77
2022/02/09 08:34:22;;;;;;;5.90;5.30;;;8.40;99.90;;;;;;10415291;28;20627;-78
2022/02/09 08:39:26;;;;;;;9.23;5.60;;;8.40;99.90;;;;;;10416948;28;20249;-78
2022/02/09 08:44:31;;;;;;;6.20;4.63;;;8.50;99.90;;;;;;10434635;28;20674;-77
2022/02/09 08:49:34;;;;;;;5.03;4.17;;;8.50;99.90;;;;;;10415604;28;20897;-78
2022/02/09 08:54:38;;;;;;;5.60;4.87;;;8.50;99.90;;;;;;10415455;28;20301;-78
2022/02/09 08:59:40;;;;;;;5.83;5.20;;;8.60;99.90;;;;;;10415423;28;20210;-77
2022/02/09 09:04:47;;;;;;;5.73;5.23;;;8.70;99.90;;;;;;10413855;28;20280;-78
2022/02/09 09:10:03;;;;;;;5.83;5.23;;;8.70;99.90;;;;;;10396667;28;20663;-78
2022/02/09 09:58:14;;;;;;;6.03;3.70;;;9.70;99.90;;;;;;10395025;28;20642;-77
2022/02/09 10:03:31;;;;;;;2.90;2.70;;;9.70;99.90;;;;;;10413368;28;20227;-77
2022/02/09 10:30:53;;;;;;;4.07;3.67;;;9.80;99.90;;;;;;10414042;28;20582;-78
2022/02/09 10:36:12;;;;;;;2.87;2.67;;;9.80;99.90;;;;;;10407343;28;20209;-78
2022/02/09 10:41:22;;;;;;;5.90;2.90;;;9.80;99.90;;;;;;10415751;28;20217;-79
2022/02/09 10:46:25;;;;;;;3.50;3.20;;;9.80;99.90;;;;;;10418037;28;20628;-79
2022/02/09 10:51:32;;;;;;;5.23;3.60;;;9.80;99.90;;;;;;10419351;28;20226;-79
2022/02/09 10:56:36;;;;;;;3.23;3.03;;;9.80;99.90;;;;;;10420140;28;20222;-79
2022/02/09 11:01:41;;;;;;;4.50;2.93;;;9.80;99.90;;;;;;10416167;28;20221;-77
2022/02/09 11:06:50;;;;;;;6.03;3.70;;;9.80;99.90;;;;;;10416709;28;20609;-78
2022/02/09 11:11:52;;;;;;;3.03;2.80;;;9.90;99.90;;;;;;10418827;28;20229;-78
2022/02/09 11:16:58;;;;;;;6.23;3.60;;;9.80;99.90;;;;;;10415935;28;20241;-79
2022/02/09 11:22:06;;;;;;;3.37;3.17;;;9.90;99.90;;;;;;10400666;28;20567;-79
2022/02/09 11:27:14;;;;;;;6.97;3.40;;;9.90;99.90;;;;;;10418617;28;20255;-79
2022/02/09 11:32:36;;;;;;;4.73;2.57;;;9.90;99.90;;;;;;10402405;28;20212;-79
2022/02/09 11:37:52;;;;;;;3.50;2.57;;;10.00;99.90;;;;;;10420094;28;20292;-79
2022/02/09 11:43:01;;;;;;;3.57;2.47;;;10.00;99.90;;;;;;10421089;28;20640;-79
2022/02/09 11:48:23;;;;;;;3.10;2.80;;;10.10;99.90;;;;;;10420148;28;20225;-78
2022/02/09 11:59:07;;;;;;;3.63;2.70;;;10.20;99.90;;;;;;10425205;28;20267;-78
2022/02/09 12:10:24;;;;;;;4.27;2.57;;;10.40;99.90;;;;;;10422476;28;20305;-79
2022/02/09 12:21:27;;;;;;;5.83;3.90;;;10.50;99.90;;;;;;10417446;28;20209;-77
2022/02/09 12:26:29;;;;;;;5.70;3.63;;;10.60;99.90;;;;;;10416735;28;20208;-78
2022/02/09 12:31:32;;;;;;;4.10;3.10;;;10.70;99.90;;;;;;10415013;28;20221;-78
2022/02/09 12:36:37;;;;;;;4.73;3.20;;;10.70;99.90;;;;;;10416281;28;20229;-78
2022/02/09 12:41:39;;;;;;;4.33;3.10;;;10.80;99.90;;;;;;10416122;28;20233;-78
2022/02/09 12:46:42;;;;;;;8.97;4.20;;;10.90;99.90;;;;;;10415856;28;20225;-77
2022/02/09 12:51:50;;;;;;;4.13;3.10;;;10.90;99.90;;;;;;10415616;28;20229;-77
2022/02/09 12:56:55;;;;;;;3.57;2.80;;;10.90;99.90;;;;;;10397461;28;20234;-78
2022/02/09 13:01:58;;;;;;;2.83;2.63;;;11.00;99.90;;;;;;10414262;28;20654;-78
2022/02/09 13:07:03;;;;;;;2.83;2.47;;;11.00;99.90;;;;;;10415760;28;20233;-78
2022/02/09 13:12:06;;;;;;;3.60;3.23;;;11.00;99.90;;;;;;10414505;28;20232;-77
2022/02/09 13:17:24;;;;;;;3.20;2.90;;;11.10;99.90;;;;;;10415174;28;20292;-77
2022/02/09 14:11:40;;;;;;;4.17;2.53;;;11.40;99.90;;;;;;10416255;28;20229;-79
2022/02/09 14:54:07;;;;;;;3.33;3.03;;;11.80;99.90;;;;;;10414274;28;20206;-78
2022/02/09 14:59:12;;;;;;;3.20;2.43;;;11.90;99.90;;;;;;10417117;28;20224;-79
2022/02/09 15:04:28;;;;;;;2.80;2.20;;;11.80;99.90;;;;;;10411828;28;20228;-77
2022/02/09 15:09:41;;;;;;;3.07;2.87;;;11.90;99.90;;;;;;10410631;28;20244;-77
2022/02/09 15:15:03;;;;;;;4.50;2.47;;;11.90;99.90;;;;;;10408648;28;20588;-77
2022/02/09 15:20:25;;;;;;;4.23;2.50;;;11.80;99.90;;;;;;10392755;28;20228;-76
2022/02/09 15:25:32;;;;;;;3.13;2.70;;;11.80;99.90;;;;;;10415939;28;20197;-76
2022/02/09 15:30:44;;;;;;;3.10;2.90;;;11.70;99.90;;;;;;10417211;28;20218;-76
2022/02/09 15:35:50;;;;;;;3.17;2.57;;;11.70;99.90;;;;;;10400103;28;20627;-77
2022/02/09 15:41:02;;;;;;;3.00;2.70;;;11.70;99.90;;;;;;10418048;28;20272;-76
2022/02/09 15:57:16;;;;;;;3.90;3.40;;;11.70;99.90;;;;;;10348343;28;20724;-77
2022/02/09 16:23:59;;;;;;;5.30;3.03;;;11.20;99.90;;;;;;10416043;28;20678;-76
2022/02/09 16:35:00;;;;;;;3.40;2.97;;;10.90;99.90;;;;;;10397301;28;20221;-76
2022/02/09 16:45:10;;;;;;;5.20;4.70;;;10.60;99.90;;;;;;10346202;28;20189;-77
2022/02/09 16:50:16;;;;;;;5.23;4.40;;;10.40;99.90;;;;;;10397856;28;20606;-76
2022/02/09 16:55:48;;;;;;;5.10;4.43;;;10.30;99.90;;;;;;10396731;28;20209;-76
2022/02/09 17:22:12;;;;;;;6.83;6.17;;;9.60;99.90;;;;;;10439841;28;20247;-77
2022/02/09 17:27:18;;;;;;;8.80;3.80;;;9.60;99.90;;;;;;10418818;28;20217;-79
2022/02/09 17:32:31;;;;;;;6.73;4.30;;;9.50;99.90;;;;;;10423715;28;20205;-78
2022/02/09 17:37:53;;;;;;;6.47;4.80;;;9.40;99.90;;;;;;10424438;28;20304;-77
2022/02/09 17:53:36;;;;;;;5.57;4.90;;;9.20;99.90;;;;;;10414386;28;20208;-77
2022/02/09 17:58:39;;;;;;;6.80;5.87;;;9.20;99.90;;;;;;10411244;28;20222;-77
2022/02/09 18:03:42;;;;;;;9.70;6.07;;;9.10;99.90;;;;;;10412956;28;20991;-77
2022/02/09 18:08:53;;;;;;;8.93;5.27;;;9.10;99.90;;;;;;10413386;28;20306;-77
2022/02/09 18:14:17;;;;;;;6.27;5.50;;;9.00;99.90;;;;;;10414882;28;20689;-78
2022/02/09 18:30:09;;;;;;;7.43;6.73;;;8.90;99.90;;;;;;10425903;28;20221;-81
2022/02/09 18:41:50;;;;;;;5.97;4.40;;;8.70;99.90;;;;;;10428663;28;20213;-81
2022/02/09 18:46:34;;;;;;;7.80;5.60;;;8.70;99.90;;;;;;10396493;28;20265;-79
2022/02/09 18:57:15;;;;;;;7.17;5.47;;;8.60;99.90;;;;;;10425028;28;20279;-80
2022/02/09 19:02:40;;;;;;;14.13;5.77;;;8.50;99.90;;;;;;10430715;28;20205;-80
2022/02/09 19:08:09;;;;;;;6.90;5.40;;;8.50;99.90;;;;;;10434593;28;20230;-79
2022/02/09 19:18:43;;;;;;;6.67;5.80;;;8.40;99.90;;;;;;10437111;28;20875;-80
2022/02/09 19:29:39;;;;;;;12.13;8.47;;;8.20;99.90;;;;;;10411210;28;20315;-80
2022/02/09 19:50:50;;;;;;;8.70;7.70;;;8.00;99.90;;;;;;10425973;28;20291;-79
2022/02/09 19:56:27;;;;;;;9.43;8.30;;;8.00;99.90;;;;;;10414058;28;20218;-78
2022/02/09 20:01:54;;;;;;;7.40;5.93;;;8.10;99.90;;;;;;10431027;28;20297;-78
2022/02/09 20:07:12;;;;;;;8.27;6.37;;;8.10;99.90;;;;;;10407758;28;20198;-79
2022/02/09 20:12:15;;;;;;;6.03;5.30;;;8.00;99.90;;;;;;10416943;28;20218;-79
2022/02/09 20:17:19;;;;;;;7.23;5.17;;;8.00;99.90;;;;;;10423200;28;20220;-79
2022/02/09 20:22:21;;;;;;;8.70;6.93;;;7.90;99.90;;;;;;10424317;28;20241;-78
2022/02/09 20:27:24;;;;;;;12.07;8.63;;;7.80;99.90;;;;;;10422828;28;20214;-78
2022/02/09 20:32:32;;;;;;;8.73;7.87;;;7.70;99.90;;;;;;10418028;28;20289;-79
2022/02/09 20:37:40;;;;;;;9.33;6.13;;;7.80;99.90;;;;;;10424298;28;20228;-78
2022/02/09 20:42:50;;;;;;;5.87;5.37;;;7.80;99.90;;;;;;10423767;28;20198;-78
2022/02/09 20:48:00;;;;;;;8.07;6.27;;;7.80;99.90;;;;;;10405676;28;20702;-79
2022/02/09 20:53:02;;;;;;;6.60;5.33;;;7.80;99.90;;;;;;10422387;28;20684;-79
2022/02/09 20:58:05;;;;;;;8.40;6.07;;;7.80;99.90;;;;;;10423417;28;20272;-79
2022/02/09 21:03:29;;;;;;;8.43;6.23;;;7.80;99.90;;;;;;10423945;28;20216;-79
2022/02/09 21:08:43;;;;;;;11.70;9.30;;;7.70;99.90;;;;;;10423220;28;20236;-78
2022/02/09 21:13:54;;;;;;;6.83;5.07;;;7.60;99.90;;;;;;10423326;28;20285;-79
2022/02/09 21:45:59;;;;;;;8.50;6.80;;;7.30;99.90;;;;;;10420415;28;20193;-78
2022/02/09 21:56:24;;;;;;;23.57;17.67;;;7.20;99.90;;;;;;10419288;28;20243;-80
2022/02/09 22:01:40;;;;;;;19.77;15.07;;;7.20;99.90;;;;;;10422157;28;20264;-79
2022/02/09 22:07:27;;;;;;;41.13;27.93;;;7.20;99.90;;;;;;10418772;28;20229;-78
2022/02/09 22:23:40;;;;;;;6.80;6.30;;;7.20;99.90;;;;;;10403041;28;20206;-79
2022/02/09 22:28:46;;;;;;;9.00;6.50;;;7.10;99.90;;;;;;10418629;28;20292;-78
2022/02/09 22:50:09;;;;;;;5.90;5.40;;;7.10;99.90;;;;;;10381197;28;20217;-78
2022/02/09 22:55:19;;;;;;;5.10;4.60;;;7.10;99.90;;;;;;10418958;28;20206;-78
2022/02/09 23:17:10;;;;;;;5.97;5.37;;;6.90;99.90;;;;;;10404029;28;20220;-79
2022/02/09 23:54:45;;;;;;;4.80;4.40;;;6.60;99.90;;;;;;10425856;28;20212;-80
